Time;durP1;ratioP1;P1;durP2;ratioP2;P2;SDS_P1;SDS_P2;PMS_P1;PMS_P2;Temp;Humidity;BMP_temperature;BMP_pressure;BME280_temperature;BME280_humidity;BME280_pressure;Samples;Min_cycle;Max_cycle;Signal;HPM_P1;HPM_P2
2022/08/12 00:51:06;;;;;;;4.18;1.80;;;;;;;21.05;43.67;96701.50;10305691;28;20041;-30
2022/08/12 00:56:06;;;;;;;2.70;1.73;;;;;;;21.04;44.44;96712.56;10324095;28;20073;-30
2022/08/12 01:01:07;;;;;;;4.93;2.03;;;;;;;21.05;44.04;96721.88;10325273;28;20045;-30
2022/08/12 01:11:28;;;;;;;2.30;1.85;;;;;;;21.13;44.52;96727.72;10327395;28;20133;-30
2022/08/12 01:16:28;;;;;;;3.57;1.60;;;;;;;21.20;45.67;96721.72;10324554;28;20639;-30
2022/08/12 01:21:55;;;;;;;2.70;1.70;;;;;;;21.22;44.44;96721.72;10322693;28;20293;-30
2022/08/12 01:26:57;;;;;;;1.85;1.67;;;;;;;21.16;44.30;96726.84;10317378;28;20038;-30
2022/08/12 01:31:59;;;;;;;4.22;1.98;;;;;;;21.16;44.36;96711.59;10323135;28;20038;-30
2022/08/12 01:37:01;;;;;;;3.17;1.50;;;;;;;21.20;45.08;96720.88;10325238;28;20050;-30
2022/08/12 01:42:07;;;;;;;1.88;1.73;;;;;;;21.07;44.19;96712.50;10325708;28;20134;-30
2022/08/12 01:47:22;;;;;;;2.08;1.70;;;;;;;21.08;44.67;96703.19;10324298;28;20073;-31
2022/08/12 01:52:45;;;;;;;1.52;1.42;;;;;;;21.03;44.37;96699.81;10325342;28;20044;-31
2022/08/12 01:57:59;;;;;;;6.03;1.67;;;;;;;20.96;44.51;96693.13;10323979;28;20033;-30
2022/08/12 02:03:02;;;;;;;3.25;1.42;;;;;;;20.87;44.78;96699.16;10324352;28;20053;-31
2022/08/12 02:14:10;;;;;;;2.03;1.58;;;;;;;20.80;45.77;96682.22;10323237;28;20038;-30
2022/08/12 02:19:27;;;;;;;2.78;1.80;;;;;;;20.86;45.67;96674.56;10324436;28;20592;-30
2022/08/12 02:24:31;;;;;;;2.10;1.75;;;;;;;20.83;45.89;96672.03;10320419;28;20049;-30
2022/08/12 02:29:32;;;;;;;2.72;1.88;;;;;;;20.75;45.83;96668.72;10318368;28;20045;-30
2022/08/12 02:34:33;;;;;;;3.58;1.70;;;;;;;20.74;45.98;96661.09;10322445;28;20448;-30
2022/08/12 02:39:36;;;;;;;2.15;1.98;;;;;;;20.71;45.09;96663.66;10321934;28;20121;-32
2022/08/12 02:44:40;;;;;;;1.88;1.63;;;;;;;20.73;45.84;96665.31;10324426;28;20042;-30
2022/08/12 02:49:49;;;;;;;3.72;1.60;;;;;;;20.87;46.43;96658.44;10323352;28;20592;-30
2022/08/12 02:54:57;;;;;;;3.20;1.42;;;;;;;20.81;45.04;96655.91;10330074;28;20045;-30
2022/08/12 03:00:03;;;;;;;3.42;1.95;;;;;;;20.68;44.50;96646.72;10331362;28;20504;-30
2022/08/12 03:05:04;;;;;;;2.33;1.70;;;;;;;20.78;44.60;96650.00;10332315;28;20030;-31
2022/08/12 03:10:09;;;;;;;2.45;1.75;;;;;;;20.81;44.52;96642.34;10330089;28;20194;-30
2022/08/12 03:15:13;;;;;;;6.70;1.35;;;;;;;20.88;44.74;96644.03;10331031;28;20038;-30
2022/08/12 03:20:16;;;;;;;2.63;1.70;;;;;;;20.89;44.13;96649.06;10331119;28;20136;-30
2022/08/12 03:25:25;;;;;;;3.30;1.75;;;;;;;20.80;44.41;96631.31;10326989;28;20389;-30
2022/08/12 03:30:31;;;;;;;1.85;1.30;;;;;;;20.80;43.83;96633.88;10325129;28;20125;-30
2022/08/12 03:35:35;;;;;;;2.22;1.48;;;;;;;20.80;44.06;96625.41;10331087;28;20161;-30
2022/08/12 04:02:25;;;;;;;4.18;1.92;;;;;;;20.89;43.69;96626.16;10323623;28;20416;-30
2022/08/12 04:07:26;;;;;;;2.05;1.52;;;;;;;20.79;43.53;96631.38;10328088;28;20038;-30
2022/08/12 04:17:46;;;;;;;5.07;1.75;;;;;;;20.68;43.72;96640.78;10319792;28;20033;-31
2022/08/12 04:22:47;;;;;;;2.63;1.63;;;;;;;21.33;43.21;96641.78;10321999;28;20034;-29
2022/08/12 04:27:49;;;;;;;5.72;1.70;;;;;;;21.23;43.50;96637.66;10323028;28;20046;-33
2022/08/12 04:32:50;;;;;;;2.25;1.50;;;;;;;21.29;43.33;96641.84;10326026;28;20133;-31
2022/08/12 04:37:53;;;;;;;2.40;1.90;;;;;;;21.28;43.56;96646.09;10315887;28;20493;-30
2022/08/12 04:42:54;;;;;;;1.63;1.40;;;;;;;21.33;43.58;96633.28;10327775;28;20038;-30
2022/08/12 04:47:55;;;;;;;4.70;1.35;;;;;;;21.57;42.60;96654.19;10322325;28;20049;-30
2022/08/12 04:52:56;;;;;;;3.90;2.00;;;;;;;21.49;43.81;96645.78;10325408;28;20045;-30
2022/08/12 04:57:57;;;;;;;4.55;2.05;;;;;;;21.53;43.07;96650.00;10326504;28;20038;-30
2022/08/12 05:02:57;;;;;;;3.87;1.90;;;;;;;21.44;44.16;96639.09;10324435;28;20084;-30
2022/08/12 05:07:57;;;;;;;7.07;2.33;;;;;;;21.51;44.55;96654.28;10324663;28;20514;-30
2022/08/12 05:13:01;;;;;;;5.37;2.03;;;;;;;21.52;44.89;96647.47;10327242;28;20026;-31
2022/08/12 05:18:01;;;;;;;7.75;2.38;;;;;;;21.55;45.12;96655.09;10324330;28;20030;-32
2022/08/12 05:23:07;;;;;;;2.15;1.90;;;;;;;21.56;45.28;96651.69;10322384;28;20498;-31
2022/08/12 05:28:07;;;;;;;4.03;2.00;;;;;;;21.71;45.49;96659.97;10321149;28;20122;-30
2022/08/12 05:33:10;;;;;;;2.95;1.98;;;;;;;21.84;45.15;96669.16;10323380;28;20112;-30
2022/08/12 05:43:37;;;;;;;1.95;1.40;;;;;;;21.70;46.03;96665.94;10325806;28;20152;-30
2022/08/12 05:48:38;;;;;;;3.95;1.88;;;;;;;21.59;45.69;96667.78;10322864;28;20048;-31
2022/08/12 05:53:39;;;;;;;2.87;1.60;;;;;;;21.64;46.03;96673.63;10323852;28;20154;-31
2022/08/12 05:58:39;;;;;;;1.90;1.15;;;;;;;21.64;46.03;96680.44;10325061;28;20033;-30
2022/08/12 06:03:40;;;;;;;1.83;1.67;;;;;;;21.62;46.00;96682.16;10317215;28;20037;-30
2022/08/12 06:08:47;;;;;;;3.28;1.95;;;;;;;21.63;46.23;96677.03;10323577;28;20030;-30
2022/08/12 06:13:48;;;;;;;;;;;;;;;21.64;46.22;96675.34;10325732;28;20042;-29
2022/08/12 06:18:48;;;;;;;1.95;1.40;;;;;;;21.74;46.70;96677.78;10324463;28;19913;-30
2022/08/12 06:23:50;;;;;;;3.10;1.77;;;;;;;21.88;46.31;96678.44;10319807;28;20046;-30
2022/08/12 06:28:51;;;;;;;5.00;1.70;;;;;;;21.89;46.46;96685.22;10318315;28;20096;-30
2022/08/12 06:33:54;;;;;;;1.83;1.23;;;;;;;21.78;46.55;96684.53;10323225;28;20084;-32
2022/08/12 06:38:54;;;;;;;2.22;1.67;;;;;;;21.73;46.67;96686.28;10322220;28;20089;-30
2022/08/12 06:43:55;;;;;;;1.50;1.40;;;;;;;21.69;46.74;96676.16;10324425;28;20100;-31
2022/08/12 06:48:57;;;;;;;2.47;1.40;;;;;;;21.68;46.92;96677.88;10322768;28;20667;-30
2022/08/12 06:54:01;;;;;;;1.65;1.40;;;;;;;21.66;47.02;96668.56;10322812;28;20030;-30
2022/08/12 06:59:02;;;;;;;2.15;1.27;;;;;;;21.66;47.14;96663.47;10323661;28;20035;-30
2022/08/12 07:04:02;;;;;;;2.38;1.70;;;;;;;21.66;46.95;96658.38;10323267;28;20041;-30
2022/08/12 07:09:03;;;;;;;1.73;1.63;;;;;;;21.69;47.11;96654.06;10321452;28;20085;-30
2022/08/12 07:14:04;;;;;;;1.55;1.45;;;;;;;21.89;46.98;96646.97;10322101;28;20699;-30
2022/08/12 07:19:04;;;;;;;4.47;1.60;;;;;;;21.98;46.77;96646.84;10323532;28;20030;-30
2022/08/12 07:24:05;;;;;;;2.47;1.43;;;;;;;21.88;46.97;96645.28;10318931;28;20068;-31
2022/08/12 07:29:08;;;;;;;2.65;1.60;;;;;;;21.76;47.13;96642.09;10318110;28;20679;-32
2022/08/12 07:34:08;;;;;;;1.58;1.48;;;;;;;21.77;46.95;96644.63;10321044;28;20038;-29
2022/08/12 07:39:09;;;;;;;1.57;1.40;;;;;;;21.61;47.09;96620.19;10322782;28;20042;-30
2022/08/12 07:44:12;;;;;;;4.97;2.23;;;;;;;21.74;47.27;96637.00;10331710;28;20592;-30
2022/08/12 07:49:14;;;;;;;3.92;1.63;;;;;;;21.76;47.29;96644.63;10323452;28;20038;-30
2022/08/12 07:54:15;;;;;;;2.33;1.80;;;;;;;21.68;47.50;96626.91;10329103;28;20034;-31
2022/08/12 07:59:16;;;;;;;1.92;1.80;;;;;;;21.84;47.35;96643.66;10327119;28;20500;-30
2022/08/12 08:09:38;;;;;;;1.75;1.40;;;;;;;22.06;47.04;96650.13;10322581;28;20045;-30
2022/08/12 08:14:39;;;;;;;2.53;1.73;;;;;;;22.00;47.20;96641.72;10329627;28;20037;-31
2022/08/12 08:19:39;;;;;;;2.13;1.92;;;;;;;21.96;47.33;96642.63;10328637;28;20030;-30
2022/08/12 08:24:40;;;;;;;2.77;1.83;;;;;;;21.92;47.15;96641.00;10324510;28;20030;-31
2022/08/12 08:29:43;;;;;;;3.10;2.28;;;;;;;21.88;47.39;96645.28;10319355;28;20080;-30
2022/08/12 08:34:45;;;;;;;2.50;1.90;;;;;;;21.85;47.04;96641.94;10326620;28;20053;-30
2022/08/12 08:39:45;;;;;;;2.95;2.20;;;;;;;21.87;47.58;96648.72;10327533;28;20084;-30
2022/08/12 08:44:47;;;;;;;1.93;1.77;;;;;;;21.90;47.46;96653.75;10324052;28;20038;-31
2022/08/12 08:49:48;;;;;;;1.95;1.70;;;;;;;21.90;47.34;96658.84;10328133;28;20428;-30
2022/08/12 08:54:49;;;;;;;1.90;1.57;;;;;;;21.98;47.64;96651.94;10329861;28;20034;-30
2022/08/12 08:59:49;;;;;;;2.05;1.60;;;;;;;22.10;46.73;96656.88;10330004;28;20289;-30
2022/08/12 09:04:50;;;;;;;1.13;1.03;;;;;;;22.11;47.19;96653.44;10327259;28;20404;-30
2022/08/12 09:09:51;;;;;;;1.90;1.80;;;;;;;22.01;47.36;96651.91;10328252;28;20066;-31
2022/08/12 09:14:51;;;;;;;2.65;2.00;;;;;;;21.94;47.34;96654.56;10328542;28;20030;-31
2022/08/12 09:19:51;;;;;;;3.27;2.07;;;;;;;21.94;47.27;96645.22;10327644;28;20039;-30
2022/08/12 09:24:52;;;;;;;1.90;1.80;;;;;;;21.89;47.73;96636.78;10322825;28;20328;-31
2022/08/12 09:29:52;;;;;;;2.00;1.77;;;;;;;21.87;47.74;96642.75;10319421;28;20485;-30
2022/08/12 09:34:53;;;;;;;2.47;2.27;;;;;;;21.92;47.72;96620.59;10326003;28;20137;-30
2022/08/12 09:39:53;;;;;;;2.20;2.05;;;;;;;21.93;47.47;96607.00;10325491;28;20058;-30
2022/08/12 09:50:16;;;;;;;1.63;1.52;;;;;;;22.10;47.50;96610.97;10323287;28;20516;-30
2022/08/12 09:55:18;;;;;;;2.92;1.70;;;;;;;22.16;47.41;96604.94;10324040;28;20081;-30
2022/08/12 10:00:20;;;;;;;1.58;1.48;;;;;;;21.90;47.33;96572.19;10322925;28;20042;-30
2022/08/12 10:05:21;;;;;;;2.38;2.17;;;;;;;21.99;47.71;96602.63;10323953;28;20042;-31
2022/08/12 10:10:21;;;;;;;2.22;2.03;;;;;;;21.98;47.95;96606.06;10324571;28;20062;-30
2022/08/12 10:15:22;;;;;;;1.70;1.60;;;;;;;21.94;47.67;96598.47;10324747;28;20054;-30
2022/08/12 10:20:22;;;;;;;2.15;1.95;;;;;;;21.97;47.73;96588.25;10324742;28;20038;-30
2022/08/12 10:30:42;;;;;;;1.85;1.75;;;;;;;21.95;47.76;96588.25;10324571;28;20073;-30
2022/08/12 10:35:42;;;;;;;2.30;2.10;;;;;;;21.97;47.71;96581.44;10320810;28;20064;-30
2022/08/12 10:46:02;;;;;;;1.90;1.80;;;;;;;22.17;47.31;96579.41;10320121;28;20157;-30
2022/08/12 10:51:03;;;;;;;3.55;2.00;;;;;;;22.08;47.30;96571.88;10323891;28;20129;-30
2022/08/12 10:56:04;;;;;;;2.15;1.95;;;;;;;22.07;47.62;96575.31;10323044;28;20029;-30
2022/08/12 11:01:06;;;;;;;2.13;1.98;;;;;;;21.99;47.42;96577.13;10323390;28;20038;-30
2022/08/12 11:06:08;;;;;;;1.73;1.50;;;;;;;21.96;47.80;96561.91;10322827;28;20172;-30
2022/08/12 11:11:09;;;;;;;2.30;1.85;;;;;;;21.94;48.02;96563.63;10323438;28;20034;-30
2022/08/12 11:16:09;;;;;;;2.30;2.13;;;;;;;21.95;48.07;96572.13;10327545;28;20046;-29
2022/08/12 11:21:09;;;;;;;2.60;2.40;;;;;;;21.96;47.92;96554.25;10330518;28;20039;-30
2022/08/12 11:26:10;;;;;;;2.23;2.03;;;;;;;22.01;47.87;96562.69;10325024;28;20282;-30
2022/08/12 11:31:10;;;;;;;2.17;1.77;;;;;;;22.03;47.79;96550.75;10327533;28;20323;-29
2022/08/12 11:36:10;;;;;;;1.87;1.67;;;;;;;22.20;47.38;96564.06;10329702;28;20405;-30
2022/08/12 11:41:11;;;;;;;1.87;1.77;;;;;;;22.20;47.51;96553.84;10331149;28;20041;-30
2022/08/12 11:46:12;;;;;;;2.10;1.90;;;;;;;22.07;47.55;96548.97;10328710;28;20300;-30
2022/08/12 11:51:12;;;;;;;2.17;1.98;;;;;;;21.91;47.63;96512.69;10329731;28;20045;-31
2022/08/12 11:56:12;;;;;;;3.65;2.10;;;;;;;22.04;47.88;96532.03;10329939;28;20121;-31
2022/08/12 12:01:13;;;;;;;1.97;1.70;;;;;;;21.94;48.34;96525.41;10328622;28;20038;-30
2022/08/12 12:06:15;;;;;;;2.00;1.80;;;;;;;22.00;48.13;96532.09;10328096;28;20057;-30
2022/08/12 12:11:16;;;;;;;1.95;1.50;;;;;;;21.93;48.39;96531.38;10329816;28;20034;-31
2022/08/12 12:16:16;;;;;;;3.92;2.35;;;;;;;21.95;48.43;96521.97;10327361;28;20412;-30
2022/08/12 12:21:17;;;;;;;1.93;1.73;;;;;;;22.00;48.00;96525.31;10327875;28;20492;-31
2022/08/12 12:26:17;;;;;;;2.50;1.83;;;;;;;22.17;47.78;96513.09;10321710;28;20047;-30
2022/08/12 12:31:17;;;;;;;1.77;1.63;;;;;;;22.23;47.60;96523.19;10328211;28;20046;-30
2022/08/12 12:36:18;;;;;;;1.83;1.73;;;;;;;22.15;47.93;96514.81;10326487;28;20818;-31
2022/08/12 12:41:18;;;;;;;3.30;2.00;;;;;;;22.07;48.08;96503.09;10327463;28;20436;-31
2022/08/12 12:46:19;;;;;;;1.80;1.70;;;;;;;22.01;48.33;96506.59;10325213;28;20035;-30
2022/08/12 12:51:19;;;;;;;1.92;1.73;;;;;;;22.03;48.25;96507.41;10327571;28;20077;-30
2022/08/12 12:56:22;;;;;;;2.50;2.30;;;;;;;22.02;48.06;96510.81;10327560;28;20038;-30
2022/08/12 13:01:25;;;;;;;2.25;2.05;;;;;;;22.01;48.41;96498.94;10325440;28;20037;-31
2022/08/12 13:06:28;;;;;;;1.83;1.73;;;;;;;22.05;48.07;96500.56;10323877;28;20043;-29
2022/08/12 13:11:29;;;;;;;2.22;2.03;;;;;;;22.01;48.59;96498.94;10327687;28;20041;-31
2022/08/12 13:16:29;;;;;;;1.83;1.48;;;;;;;22.15;48.14;96502.06;10323734;28;20096;-30
2022/08/12 13:21:31;;;;;;;2.10;1.90;;;;;;;22.25;47.54;96488.31;10323487;28;20508;-31
2022/08/12 13:26:33;;;;;;;1.30;1.20;;;;;;;22.18;48.15;96486.72;10321262;28;20126;-30
2022/08/12 13:31:35;;;;;;;3.35;2.35;;;;;;;22.13;48.21;96477.50;10322262;28;20034;-30
2022/08/12 13:36:36;;;;;;;2.10;1.90;;;;;;;22.11;48.08;96469.00;10320932;28;20097;-30
2022/08/12 13:41:36;;;;;;;1.80;1.70;;;;;;;22.06;48.13;96466.53;10326341;28;20045;-29
2022/08/12 13:46:39;;;;;;;2.85;2.08;;;;;;;22.05;48.74;96484.44;10323369;28;20326;-30
2022/08/12 13:51:41;;;;;;;2.20;1.98;;;;;;;22.05;48.26;96472.50;10324190;28;20068;-30
2022/08/12 13:56:41;;;;;;;2.65;1.90;;;;;;;22.08;48.05;96475.00;10325453;28;20066;-30
2022/08/12 14:01:42;;;;;;;2.20;2.00;;;;;;;22.02;48.74;96474.28;10323455;28;20062;-30
2022/08/12 14:06:42;;;;;;;1.20;1.10;;;;;;;22.09;48.44;96470.75;10323307;28;20493;-30
2022/08/12 14:11:44;;;;;;;1.80;1.70;;;;;;;22.22;47.81;96465.38;10325539;28;20412;-29
2022/08/12 14:16:45;;;;;;;1.70;1.60;;;;;;;22.24;48.19;96465.38;10320986;28;20030;-29
2022/08/12 14:21:48;;;;;;;1.77;1.67;;;;;;;22.11;48.39;96472.41;10318846;28;20034;-29
2022/08/12 14:26:48;;;;;;;1.80;1.70;;;;;;;22.04;49.08;96450.44;10319499;28;20488;-31
2022/08/12 14:31:52;;;;;;;1.97;1.83;;;;;;;21.98;49.12;96431.88;10322770;28;20049;-30
2022/08/12 14:36:52;;;;;;;2.20;1.80;;;;;;;22.02;48.76;96433.47;10320239;28;20077;-29
2022/08/12 14:41:52;;;;;;;2.27;1.70;;;;;;;22.07;48.40;96444.44;10324812;28;20077;-31
2022/08/12 14:46:55;;;;;;;2.77;2.30;;;;;;;22.04;48.87;96441.94;10321058;28;20505;-30
2022/08/12 14:51:56;;;;;;;2.08;1.80;;;;;;;22.05;48.64;96436.81;10323538;28;20034;-30
2022/08/12 14:56:57;;;;;;;1.92;1.83;;;;;;;22.09;48.27;96445.25;10323907;28;20034;-30
2022/08/12 15:01:58;;;;;;;2.00;1.80;;;;;;;22.24;48.16;96445.78;10320323;28;20038;-30
2022/08/12 15:06:58;;;;;;;1.40;1.30;;;;;;;22.28;48.46;96447.44;10320852;28;20472;-30
2022/08/12 15:11:59;;;;;;;1.80;1.70;;;;;;;22.11;48.79;96438.41;10324157;28;20108;-30
2022/08/12 15:16:59;;;;;;;2.37;1.30;;;;;;;22.01;48.82;96425.00;10322116;28;20038;-30
2022/08/12 15:21:59;;;;;;;2.23;1.90;;;;;;;22.10;48.82;96445.22;10320339;28;20794;-29
2022/08/12 15:27:00;;;;;;;2.00;1.90;;;;;;;22.07;48.92;96442.72;10318247;28;20125;-30
2022/08/12 15:32:02;;;;;;;2.40;2.20;;;;;;;22.12;48.80;96451.13;10321995;28;20126;-30
2022/08/12 15:37:02;;;;;;;2.00;1.90;;;;;;;22.08;49.15;96452.03;10318455;28;20408;-30
2022/08/12 15:42:03;;;;;;;2.30;2.10;;;;;;;22.09;48.94;96435.91;10323642;28;20030;-30
2022/08/12 15:47:03;;;;;;;2.00;1.90;;;;;;;22.08;49.06;96439.31;10322159;28;20033;-30
2022/08/12 15:52:03;;;;;;;1.40;1.30;;;;;;;22.25;48.60;96439.84;10321618;28;20026;-31
2022/08/12 15:57:04;;;;;;;1.48;1.38;;;;;;;22.34;48.40;96432.03;10322706;28;20030;-30
2022/08/12 16:02:05;;;;;;;1.25;1.15;;;;;;;22.21;48.62;96438.22;10327714;28;20392;-30
2022/08/12 16:07:05;;;;;;;1.30;1.20;;;;;;;22.07;49.31;96437.63;10329294;28;20040;-30
2022/08/12 16:12:06;;;;;;;1.58;1.48;;;;;;;22.06;49.16;96435.94;10332675;28;20042;-30
2022/08/12 16:17:06;;;;;;;1.70;1.60;;;;;;;22.07;49.29;96442.72;10328928;28;20040;-32
2022/08/12 16:22:09;;;;;;;2.30;2.10;;;;;;;22.12;49.08;96432.44;10328433;28;20153;-29
2022/08/12 16:27:09;;;;;;;2.33;2.13;;;;;;;22.09;49.37;96435.91;10325813;28;20567;-30
2022/08/12 16:32:10;;;;;;;2.28;2.00;;;;;;;22.11;49.34;96433.31;10329051;28;20100;-31
2022/08/12 16:37:12;;;;;;;2.30;2.10;;;;;;;22.15;49.12;96434.94;10327848;28;20039;-30
2022/08/12 16:42:14;;;;;;;2.17;1.80;;;;;;;22.26;49.00;96436.44;10329314;28;20065;-30
2022/08/12 16:47:15;;;;;;;1.92;1.83;;;;;;;22.38;48.75;96436.19;10326259;28;20030;-31
2022/08/12 16:52:16;;;;;;;1.10;1.00;;;;;;;22.27;49.04;96440.66;10327438;28;20031;-30
2022/08/12 16:57:18;;;;;;;1.30;1.20;;;;;;;22.17;49.10;96434.06;10328384;28;20069;-30
2022/08/12 17:02:19;;;;;;;1.85;1.75;;;;;;;22.15;49.34;96438.31;10327378;28;20156;-30
2022/08/12 17:07:19;;;;;;;1.87;1.77;;;;;;;22.14;49.35;96439.19;10325405;28;20034;-30
2022/08/12 17:12:20;;;;;;;2.10;1.90;;;;;;;22.14;49.33;96439.19;10325318;28;20301;-30
2022/08/12 17:17:22;;;;;;;3.05;2.53;;;;;;;22.16;49.88;96431.53;10323329;28;20129;-30
2022/08/12 17:22:24;;;;;;;4.85;2.22;;;;;;;22.14;49.91;96438.38;10318593;28;20113;-29
2022/08/12 17:27:27;;;;;;;3.33;1.77;;;;;;;22.29;50.32;96431.25;10319872;28;20116;-30
2022/08/12 17:32:30;;;;;;;5.78;1.98;;;;;;;22.42;49.74;96430.19;10320798;28;20030;-30
2022/08/12 17:37:32;;;;;;;3.55;1.55;;;;;;;22.29;49.82;96444.00;10320433;28;20428;-30
2022/08/12 17:42:33;;;;;;;3.08;1.60;;;;;;;22.21;49.92;96445.88;10321383;28;20065;-30
2022/08/12 17:47:34;;;;;;;3.47;2.13;;;;;;;22.17;49.74;96444.25;10321064;28;20049;-31
2022/08/12 17:52:38;;;;;;;3.88;1.80;;;;;;;22.10;49.88;96442.69;10318780;28;20039;-31
2022/08/12 17:57:39;;;;;;;3.03;2.05;;;;;;;22.16;49.89;96457.03;10321656;28;20034;-31
2022/08/12 18:02:40;;;;;;;1.95;1.75;;;;;;;22.16;50.23;96460.41;10316678;28;20413;-30
2022/08/12 18:07:43;;;;;;;1.80;1.70;;;;;;;22.17;50.05;96469.75;10315132;28;20068;-30
2022/08/12 18:12:46;;;;;;;1.92;1.83;;;;;;;22.15;49.18;96466.38;10321558;28;20069;-30
2022/08/12 18:17:47;;;;;;;1.98;1.77;;;;;;;22.30;50.15;96467.81;10319442;28;20049;-30
2022/08/12 18:22:51;;;;;;;1.58;1.48;;;;;;;22.45;49.58;96481.16;10317111;28;20034;-30
2022/08/12 18:27:53;;;;;;;1.60;1.50;;;;;;;22.30;49.66;96476.28;10313995;28;20030;-31
2022/08/12 18:32:56;;;;;;;1.90;1.70;;;;;;;22.25;49.85;96483.22;10320657;28;20042;-30
2022/08/12 18:38:00;;;;;;;2.10;1.90;;;;;;;22.17;49.80;96490.16;10319429;28;20030;-30
2022/08/12 18:43:00;;;;;;;2.30;1.90;;;;;;;22.17;50.05;96495.25;10320623;28;20445;-30
2022/08/12 18:48:03;;;;;;;2.40;1.83;;;;;;;22.15;50.00;96504.63;10316556;28;20030;-30
2022/08/12 18:53:06;;;;;;;3.00;1.90;;;;;;;22.15;49.72;96504.63;10316521;28;20038;-30
2022/08/12 18:58:13;;;;;;;11.63;2.05;;;;;;;21.94;50.98;96491.41;10316391;28;20101;-30
2022/08/12 19:03:15;;;;;;;5.93;2.13;;;;;;;22.13;50.43;96501.25;10311820;28;20193;-30
2022/08/12 19:08:15;;;;;;;5.18;1.35;;;;;;;22.21;50.18;96511.31;10310984;28;20097;-30
2022/08/12 19:18:38;;;;;;;1.80;1.33;;;;;;;22.20;49.83;96524.94;10317300;28;20539;-30
2022/08/12 19:23:38;;;;;;;1.48;1.10;;;;;;;21.97;50.40;96532.16;10315672;28;20037;-30
2022/08/12 19:28:40;;;;;;;1.48;1.10;;;;;;;21.96;50.30;96526.22;10313511;28;20039;-30
2022/08/12 19:33:40;;;;;;;1.45;1.05;;;;;;;21.85;50.67;96530.66;10315300;28;20046;-30
2022/08/12 19:38:42;;;;;;;10.20;1.33;;;;;;;21.86;50.52;96534.88;10322896;28;20046;-30
2022/08/12 19:43:43;;;;;;;3.17;0.90;;;;;;;21.85;50.52;96533.19;10326680;28;20034;-30
2022/08/12 19:48:43;;;;;;;2.55;1.10;;;;;;;21.89;50.50;96545.00;10322535;28;20041;-30
2022/08/12 19:53:44;;;;;;;3.93;1.30;;;;;;;22.11;49.93;96535.31;10321367;28;20410;-30
2022/08/12 19:58:44;;;;;;;1.42;1.13;;;;;;;22.07;49.89;96538.78;10320633;28;20493;-31
2022/08/12 20:03:47;;;;;;;4.40;2.22;;;;;;;22.06;49.79;96547.31;10322790;28;20034;-31
2022/08/12 20:08:48;;;;;;;7.70;2.17;;;;;;;22.23;48.28;96545.31;10315664;28;20050;-31
2022/08/12 20:13:52;;;;;;;3.30;1.63;;;;;;;22.01;49.81;96549.94;10317328;28;20482;-31
2022/08/12 20:18:52;;;;;;;7.10;1.58;;;;;;;21.88;50.40;96558.63;10323153;28;20038;-31
2022/08/12 20:23:52;;;;;;;1.33;1.10;;;;;;;21.75;50.43;96546.97;10317746;28;20038;-30
2022/08/12 20:28:53;;;;;;;2.07;1.20;;;;;;;21.70;50.25;96564.00;10318860;28;20030;-32
2022/08/12 20:33:54;;;;;;;1.88;0.73;;;;;;;21.68;50.26;96555.56;10316888;28;20038;-31
2022/08/12 20:38:54;;;;;;;3.43;1.23;;;;;;;21.81;49.56;96557.03;10319546;28;20492;-30
2022/08/12 20:43:56;;;;;;;1.20;1.10;;;;;;;21.76;49.84;96561.38;10319568;28;20064;-31
2022/08/12 20:49:03;;;;;;;1.25;1.05;;;;;;;21.68;48.27;96564.91;10316859;28;20140;-30
2022/08/12 20:54:04;;;;;;;1.10;1.00;;;;;;;21.64;48.50;96568.34;10315009;28;20555;-31
2022/08/12 20:59:11;;;;;;;1.88;1.05;;;;;;;21.60;48.20;96562.44;10314747;28;20089;-31
2022/08/12 21:09:40;;;;;;;2.35;1.25;;;;;;;21.56;47.59;96560.78;10315386;28;20089;-30
2022/08/12 21:14:40;;;;;;;2.75;1.08;;;;;;;21.56;47.55;96559.97;10322412;28;20504;-32
2022/08/12 21:19:41;;;;;;;1.63;1.20;;;;;;;21.52;46.86;96563.41;10319034;28;20026;-32
2022/08/12 21:24:44;;;;;;;1.95;1.65;;;;;;;21.59;47.96;96554.81;10321709;28;20290;-31
2022/08/12 21:29:44;;;;;;;1.17;1.05;;;;;;;21.43;47.59;96533.81;10316405;28;20037;-30
2022/08/12 21:34:46;;;;;;;2.47;1.23;;;;;;;21.55;47.58;96554.00;10323646;28;20037;-30
2022/08/12 21:39:46;;;;;;;1.23;1.00;;;;;;;21.53;47.45;96555.75;10325272;28;20402;-30
2022/08/12 21:44:47;;;;;;;1.87;1.20;;;;;;;21.53;47.44;96560.84;10323394;28;20038;-30
2022/08/12 21:49:52;;;;;;;1.45;1.35;;;;;;;21.48;47.59;96562.59;10327917;28;20034;-31
2022/08/12 21:54:52;;;;;;;0.93;0.93;;;;;;;21.34;46.94;96539.06;10324449;28;20105;-30
2022/08/12 21:59:52;;;;;;;1.63;1.50;;;;;;;21.45;47.11;96560.09;10325012;28;20042;-30
2022/08/12 22:10:19;;;;;;;1.95;1.10;;;;;;;21.47;47.03;96566.00;10322962;28;20049;-31
2022/08/12 22:15:20;;;;;;;1.58;0.95;;;;;;;21.51;46.78;96561.72;10322317;28;20038;-30
2022/08/12 22:20:20;;;;;;;2.30;0.90;;;;;;;21.49;46.68;96564.28;10323132;28;20038;-31
2022/08/12 22:25:23;;;;;;;1.40;1.10;;;;;;;21.48;46.86;96561.78;10322485;28;20113;-30
2022/08/12 22:35:42;;;;;;;2.08;1.00;;;;;;;21.44;46.03;96560.97;10320059;28;20076;-30
2022/08/12 22:51:32;;;;;;;5.67;1.50;;;;;;;21.44;45.97;96555.03;10322178;28;20440;-30
2022/08/12 22:56:32;;;;;;;1.73;1.40;;;;;;;21.41;45.08;96552.53;10323624;28;20117;-31
2022/08/12 23:01:39;;;;;;;2.93;1.00;;;;;;;21.48;46.02;96552.41;10319976;28;20027;-31
2022/08/12 23:06:40;;;;;;;;;;;;;;;21.50;45.80;96545.63;10318955;28;20038;-30
2022/08/12 23:11:41;;;;;;;1.30;0.90;;;;;;;21.50;45.93;96550.72;10329637;28;19921;-30
2022/08/12 23:16:44;;;;;;;1.88;1.10;;;;;;;21.46;46.01;96538.88;10323341;28;20045;-30
2022/08/12 23:21:50;;;;;;;1.10;1.00;;;;;;;21.49;46.84;96541.34;10325521;28;20678;-31
2022/08/12 23:32:14;;;;;;;1.27;0.90;;;;;;;21.37;45.01;96528.81;10328238;28;19924;-30
2022/08/12 23:37:15;;;;;;;0.88;0.80;;;;;;;21.38;45.62;96515.22;10329774;28;20038;-30
2022/08/12 23:42:16;;;;;;;1.25;0.90;;;;;;;21.37;45.32;96513.53;10333741;28;20026;-30
2022/08/12 23:47:16;;;;;;;1.40;0.80;;;;;;;21.37;44.60;96513.53;10328156;28;20042;-31
2022/08/12 23:52:18;;;;;;;2.60;1.03;;;;;;;21.38;45.23;96516.94;10327138;28;20516;-30
2022/08/12 23:57:19;;;;;;;2.83;0.82;;;;;;;21.40;45.60;96512.66;10330766;28;20042;-31
